createdAt,value
2022-08-18T00:01:11.450Z,811.67
2022-08-18T00:03:56.794Z,812.23
2022-08-18T00:06:32.039Z,802.90
2022-08-18T00:09:01.519Z,803.43
2022-08-18T00:11:41.186Z,817.10
2022-08-18T00:14:13.821Z,799.97
2022-08-18T00:16:52.564Z,804.00
2022-08-18T00:19:43.691Z,797.37
2022-08-18T00:22:14.572Z,784.00
2022-08-18T00:24:47.694Z,798.00
2022-08-18T00:27:23.376Z,796.90
2022-08-18T00:29:52.872Z,797.13
2022-08-18T00:32:23.400Z,798.20
2022-08-18T00:34:53.068Z,795.80
2022-08-18T00:37:21.262Z,796.97
2022-08-18T00:39:52.406Z,812.97
2022-08-18T00:42:28.157Z,803.47
2022-08-18T00:45:02.722Z,809.07
2022-08-18T00:47:42.056Z,813.60
2022-08-18T00:50:16.921Z,802.77
2022-08-18T00:52:49.662Z,809.47
2022-08-18T00:55:19.443Z,801.17
2022-08-18T00:57:50.415Z,804.43
2022-08-18T01:00:18.821Z,793.03
2022-08-18T01:02:49.290Z,810.13
2022-08-18T01:05:23.554Z,802.70
2022-08-18T01:07:51.879Z,804.90
2022-08-18T01:10:21.640Z,816.37
2022-08-18T01:12:51.578Z,806.33
2022-08-18T01:15:28.814Z,808.10
2022-08-18T01:18:15.616Z,797.80
2022-08-18T01:21:17.900Z,794.53
2022-08-18T01:23:48.809Z,803.60
2022-08-18T01:26:17.437Z,806.20
2022-08-18T01:28:47.413Z,792.40
2022-08-18T01:31:32.733Z,816.30
2022-08-18T01:34:01.068Z,783.33
2022-08-18T01:36:29.807Z,793.30
2022-08-18T01:38:59.367Z,800.97
2022-08-18T01:41:30.689Z,793.23
2022-08-18T01:43:59.635Z,794.43
2022-08-18T01:46:28.739Z,791.23
2022-08-18T01:48:58.665Z,780.00
2022-08-18T01:51:39.431Z,784.87
2022-08-18T01:54:12.478Z,792.73
2022-08-18T01:56:42.379Z,788.77
2022-08-18T01:59:14.582Z,779.67
2022-08-18T02:01:50.713Z,781.97
2022-08-18T02:04:35.150Z,782.70
2022-08-18T02:07:07.289Z,776.93
2022-08-18T02:09:37.799Z,781.33
2022-08-18T02:12:07.388Z,770.07
2022-08-18T02:14:35.929Z,778.47
2022-08-18T02:17:05.773Z,773.63
2022-08-18T02:19:35.006Z,760.23
2022-08-18T02:22:03.480Z,771.23
2022-08-18T02:24:31.662Z,757.23
2022-08-18T02:27:01.191Z,756.37
2022-08-18T02:29:29.746Z,757.00
2022-08-18T02:31:58.047Z,760.77
2022-08-18T02:34:26.640Z,752.60
2022-08-18T02:36:55.016Z,743.30
2022-08-18T02:39:23.141Z,736.63
2022-08-18T02:41:54.626Z,738.97
2022-08-18T02:44:24.078Z,732.10
2022-08-18T02:46:54.143Z,750.33
2022-08-18T02:49:22.689Z,744.97
2022-08-18T02:51:51.253Z,757.57
2022-08-18T02:54:20.433Z,750.70
2022-08-18T02:56:48.637Z,743.37
2022-08-18T02:59:19.272Z,734.33
2022-08-18T03:01:52.004Z,731.33
2022-08-18T03:04:28.120Z,727.97
2022-08-18T03:06:58.953Z,734.43
2022-08-18T03:09:27.776Z,724.13
2022-08-18T03:11:56.075Z,718.73
2022-08-18T03:14:24.129Z,708.03
2022-08-18T03:16:55.270Z,707.27
2022-08-18T03:19:24.700Z,688.53
2022-08-18T03:21:53.289Z,693.77
2022-08-18T03:24:22.968Z,683.97
2022-08-18T03:26:53.663Z,676.93
2022-08-18T03:29:22.223Z,680.13
2022-08-18T03:31:51.332Z,666.70
2022-08-18T03:34:21.821Z,655.93
2022-08-18T03:36:50.540Z,647.73
2022-08-18T03:39:19.222Z,621.53
2022-08-18T03:41:58.508Z,629.83
2022-08-18T03:44:30.627Z,605.00
2022-08-18T03:47:00.268Z,606.10
2022-08-18T03:49:29.914Z,567.67
2022-08-18T03:52:01.112Z,567.57
2022-08-18T03:54:29.648Z,557.93
2022-08-18T03:56:58.343Z,551.57
2022-08-18T03:59:27.355Z,545.70
2022-08-18T04:01:56.008Z,535.00
2022-08-18T04:04:25.735Z,561.23
2022-08-18T04:06:57.156Z,555.60
2022-08-18T04:09:27.612Z,550.30
2022-08-18T04:11:55.956Z,543.77
2022-08-18T04:14:28.788Z,536.90
2022-08-18T04:16:56.977Z,524.07
2022-08-18T04:19:27.292Z,514.77
2022-08-18T04:21:58.666Z,505.87
2022-08-18T04:24:31.207Z,496.47
2022-08-18T04:27:03.018Z,503.73
2022-08-18T04:29:31.131Z,484.30
2022-08-18T04:32:02.819Z,466.63
2022-08-18T04:34:31.104Z,478.03
2022-08-18T04:37:01.398Z,465.83
2022-08-18T04:39:29.530Z,448.77
2022-08-18T04:42:03.834Z,449.90
2022-08-18T04:44:31.916Z,444.33
2022-08-18T04:47:02.313Z,442.27
2022-08-18T04:49:32.006Z,434.53
2022-08-18T04:52:36.865Z,432.17
2022-08-18T04:55:08.475Z,436.60
2022-08-18T04:57:36.845Z,440.50
2022-08-18T05:00:08.333Z,463.27
2022-08-18T05:02:36.519Z,476.47
2022-08-18T05:05:05.331Z,470.27
2022-08-18T05:07:35.029Z,470.53
2022-08-18T05:10:03.129Z,464.03
2022-08-18T05:12:31.452Z,460.87
2022-08-18T05:14:59.620Z,459.73
2022-08-18T05:17:30.753Z,456.73
2022-08-18T05:20:01.024Z,459.93
2022-08-18T05:22:30.502Z,456.20
2022-08-18T05:25:02.065Z,451.37
2022-08-18T05:27:42.653Z,452.17
2022-08-18T05:30:13.664Z,447.97
2022-08-18T05:32:47.935Z,445.67
2022-08-18T05:35:22.841Z,441.90
2022-08-18T05:38:23.678Z,440.83
2022-08-18T05:41:06.313Z,443.47
2022-08-18T05:43:36.488Z,455.30
2022-08-18T05:46:14.267Z,443.23
2022-08-18T05:48:43.938Z,505.10
2022-08-18T05:51:15.928Z,536.63
2022-08-18T05:54:01.859Z,545.00
2022-08-18T05:56:48.019Z,539.43
2022-08-18T05:59:23.690Z,546.50
2022-08-18T06:01:57.253Z,535.27
2022-08-18T06:04:31.216Z,549.97
2022-08-18T06:07:03.959Z,573.57
2022-08-18T06:09:35.126Z,573.47
2022-08-18T06:12:11.067Z,572.93
2022-08-18T06:14:41.403Z,566.00
2022-08-18T06:17:19.183Z,571.80
2022-08-18T06:19:53.896Z,589.57
2022-08-18T06:22:30.534Z,574.77
2022-08-18T06:25:05.027Z,583.20
2022-08-18T06:27:41.001Z,582.27
2022-08-18T06:30:14.007Z,573.60
2022-08-18T06:33:02.586Z,570.93
2022-08-18T06:35:36.144Z,571.80
2022-08-18T06:38:40.889Z,581.83
2022-08-18T06:41:42.354Z,580.17
2022-08-18T06:44:08.659Z,582.87
2022-08-18T06:46:42.613Z,583.20
2022-08-18T06:49:12.109Z,581.87
2022-08-18T06:51:41.037Z,575.77
2022-08-18T06:54:26.582Z,579.87
2022-08-18T06:56:58.926Z,578.90
2022-08-18T06:59:31.895Z,568.67
2022-08-18T07:02:03.665Z,568.23
2022-08-18T07:04:34.808Z,578.87
2022-08-18T07:07:14.200Z,559.90
2022-08-18T07:09:42.427Z,571.67
2022-08-18T07:12:12.260Z,580.87
2022-08-18T07:14:47.014Z,659.40
2022-08-18T07:17:22.317Z,675.73
2022-08-18T07:20:20.311Z,658.57
2022-08-18T07:22:57.479Z,652.67
2022-08-18T07:25:30.914Z,657.43
2022-08-18T07:28:02.005Z,653.90
2022-08-18T07:30:36.098Z,651.77
2022-08-18T07:33:12.671Z,659.13
2022-08-18T07:35:45.962Z,660.37
2022-08-18T07:38:41.532Z,655.47
2022-08-18T07:41:14.242Z,654.50
2022-08-18T07:43:47.966Z,653.03
2022-08-18T07:46:22.439Z,652.90
2022-08-18T07:48:51.031Z,648.63
2022-08-18T07:51:25.144Z,639.73
2022-08-18T07:54:03.320Z,637.27
2022-08-18T07:56:39.803Z,640.43
2022-08-18T07:59:15.841Z,639.50
2022-08-18T08:01:50.235Z,623.97
2022-08-18T08:04:26.581Z,625.40
2022-08-18T08:07:22.879Z,624.67
2022-08-18T08:09:54.784Z,617.57
2022-08-18T08:12:32.150Z,619.43
2022-08-18T08:15:07.351Z,616.23
2022-08-18T08:17:43.701Z,600.17
2022-08-18T08:20:21.191Z,605.13
2022-08-18T08:23:03.751Z,602.53
2022-08-18T08:25:52.658Z,595.47
2022-08-18T08:28:31.535Z,594.07
2022-08-18T08:31:33.374Z,584.60
2022-08-18T08:34:05.826Z,600.03
2022-08-18T08:36:37.566Z,592.87
2022-08-18T08:39:10.385Z,585.37
2022-08-18T08:41:43.277Z,578.67
2022-08-18T08:44:15.021Z,584.67
2022-08-18T08:46:47.396Z,593.43
2022-08-18T08:49:26.931Z,582.93
2022-08-18T08:51:58.061Z,592.13
2022-08-18T08:54:28.298Z,579.57
2022-08-18T08:56:59.800Z,575.33
2022-08-18T08:59:27.921Z,583.17
2022-08-18T09:02:27.056Z,586.63
2022-08-18T09:05:09.248Z,584.73
2022-08-18T09:08:02.993Z,579.77
2022-08-18T09:11:01.745Z,589.30
2022-08-18T09:13:48.065Z,582.17
2022-08-18T09:16:27.990Z,586.90
2022-08-18T09:19:08.022Z,586.73
2022-08-18T09:21:44.406Z,589.13
2022-08-18T09:24:22.158Z,583.17
2022-08-18T09:26:54.192Z,581.67
2022-08-18T09:29:27.038Z,577.67
2022-08-18T09:32:28.247Z,589.80
2022-08-18T09:35:05.360Z,578.80
2022-08-18T09:37:46.870Z,583.50
2022-08-18T09:43:55.928Z,592.83
2022-08-18T09:46:52.808Z,599.00
2022-08-18T09:50:38.225Z,598.47
2022-08-18T09:56:01.415Z,594.43
2022-08-18T09:58:58.666Z,602.83
2022-08-18T10:01:40.106Z,596.43
2022-08-18T10:04:28.887Z,605.90
2022-08-18T10:07:16.567Z,593.30
2022-08-18T10:09:54.616Z,609.87
2022-08-18T10:12:34.022Z,585.90
2022-08-18T10:15:33.021Z,591.17
2022-08-18T10:18:13.746Z,592.87
2022-08-18T10:20:54.535Z,582.70
2022-08-18T10:24:08.045Z,592.50
2022-08-18T10:27:13.648Z,596.40
2022-08-18T10:29:54.860Z,590.77
2022-08-18T10:35:56.069Z,579.63
2022-08-18T10:38:30.755Z,584.43
2022-08-18T10:41:09.582Z,589.13
2022-08-18T10:43:55.643Z,592.67
2022-08-18T10:46:32.862Z,587.20
2022-08-18T10:49:17.749Z,597.43
2022-08-18T10:52:14.011Z,596.33
2022-08-18T10:54:59.037Z,596.83
2022-08-18T10:57:36.219Z,586.97
2022-08-18T11:00:11.360Z,596.40
2022-08-18T11:03:02.822Z,576.83
2022-08-18T11:05:43.159Z,589.77
2022-08-18T11:08:17.305Z,596.17
2022-08-18T11:11:27.371Z,583.57
2022-08-18T11:13:56.199Z,588.47
2022-08-18T11:16:36.577Z,594.97
2022-08-18T11:19:09.699Z,590.60
2022-08-18T11:21:43.335Z,598.87
2022-08-18T11:24:15.979Z,593.53
2022-08-18T11:26:52.426Z,590.73
2022-08-18T11:29:23.686Z,588.43
2022-08-18T11:31:59.466Z,588.63
2022-08-18T11:34:36.002Z,578.27
2022-08-18T11:37:09.102Z,587.90
2022-08-18T11:39:44.610Z,586.50
2022-08-18T11:42:24.908Z,575.60
2022-08-18T11:44:55.405Z,576.00
2022-08-18T11:47:27.865Z,562.53
2022-08-18T11:50:00.274Z,558.57
2022-08-18T11:52:33.073Z,557.23
2022-08-18T12:00:58.851Z,557.53
2022-08-18T12:03:41.180Z,557.03
2022-08-18T12:06:22.079Z,561.10
2022-08-18T12:08:59.470Z,558.77
2022-08-18T12:11:30.009Z,572.80
2022-08-18T12:14:30.687Z,571.97
2022-08-18T12:16:54.398Z,562.07
2022-08-18T12:19:25.211Z,574.17
2022-08-18T12:21:57.913Z,561.63
2022-08-18T12:24:29.351Z,575.27
2022-08-18T12:27:02.875Z,556.43
2022-08-18T12:29:50.811Z,562.47
2022-08-18T12:32:48.795Z,571.07
2022-08-18T12:35:12.182Z,559.50
2022-08-18T12:40:32.986Z,528.20
2022-08-18T12:43:01.590Z,537.07
2022-08-18T12:45:31.037Z,524.73
2022-08-18T12:48:04.255Z,532.07
2022-08-18T12:50:58.661Z,517.00
2022-08-18T12:53:57.830Z,532.53
2022-08-18T12:56:22.684Z,495.07
2022-08-18T12:58:54.153Z,481.80
2022-08-18T13:01:23.586Z,477.03
2022-08-18T13:04:10.732Z,464.63
2022-08-18T13:07:00.061Z,477.77
2022-08-18T13:09:52.499Z,476.93
2022-08-18T13:12:19.780Z,485.83
2022-08-18T13:14:49.837Z,485.13
2022-08-18T13:17:32.267Z,483.37
2022-08-18T13:20:04.252Z,488.67
2022-08-18T13:22:33.816Z,487.07
2022-08-18T13:25:03.783Z,490.77
2022-08-18T13:27:35.622Z,484.67
2022-08-18T13:30:29.590Z,473.33
2022-08-18T13:32:59.050Z,479.53
2022-08-18T13:35:29.977Z,464.97
2022-08-18T13:38:14.558Z,480.60
2022-08-18T13:40:48.347Z,480.83
2022-08-18T13:43:18.465Z,478.13
2022-08-18T13:45:53.465Z,485.67
2022-08-18T13:48:25.684Z,476.97
2022-08-18T13:50:55.894Z,484.43
2022-08-18T13:53:27.588Z,489.10
2022-08-18T13:55:58.102Z,478.43
2022-08-18T13:58:27.236Z,491.87
2022-08-18T14:01:15.996Z,481.57
2022-08-18T14:03:47.880Z,491.80
2022-08-18T14:06:21.930Z,477.17
2022-08-18T14:08:53.115Z,480.67
2022-08-18T14:11:23.919Z,481.10
2022-08-18T14:13:54.382Z,490.87
2022-08-18T14:16:23.672Z,479.63
2022-08-18T14:19:12.954Z,472.90
2022-08-18T14:22:01.857Z,486.00
2022-08-18T14:24:50.849Z,478.37
2022-08-18T14:27:20.565Z,472.37
2022-08-18T14:29:49.760Z,479.30
2022-08-18T14:32:29.185Z,480.73
2022-08-18T14:35:00.255Z,489.30
2022-08-18T14:37:29.786Z,482.10
2022-08-18T14:39:59.707Z,479.13
2022-08-18T14:42:32.891Z,484.10
2022-08-18T14:45:26.581Z,482.43
2022-08-18T14:48:06.579Z,482.07
2022-08-18T14:50:36.927Z,490.57
2022-08-18T14:53:05.499Z,487.47
2022-08-18T14:55:35.846Z,489.63
2022-08-18T14:58:04.220Z,492.00
2022-08-18T15:00:49.750Z,487.33
2022-08-18T15:03:21.644Z,493.07
2022-08-18T15:05:56.571Z,470.67
2022-08-18T15:08:25.283Z,471.03
2022-08-18T15:10:57.288Z,476.53
2022-08-18T15:13:26.451Z,467.27
2022-08-18T15:15:55.861Z,479.60
2022-08-18T15:18:31.379Z,478.27
2022-08-18T15:21:19.666Z,484.50
2022-08-18T15:24:22.089Z,494.67
2022-08-18T15:26:57.727Z,502.20
2022-08-18T15:29:29.413Z,486.03
2022-08-18T15:32:05.220Z,505.87
2022-08-18T15:34:46.738Z,499.00
2022-08-18T15:37:19.886Z,497.60
2022-08-18T15:39:52.004Z,496.80
2022-08-18T15:42:25.194Z,493.80
2022-08-18T15:44:53.934Z,488.10
2022-08-18T15:47:25.290Z,490.43
2022-08-18T15:49:54.770Z,480.13
2022-08-18T15:52:26.131Z,482.47
2022-08-18T15:54:56.938Z,475.10
2022-08-18T15:57:39.686Z,469.33
2022-08-18T16:00:12.415Z,480.63
2022-08-18T16:02:41.152Z,479.00
2022-08-18T16:05:17.073Z,472.43
2022-08-18T16:07:47.579Z,468.90
2022-08-18T16:13:20.477Z,487.37
2022-08-18T16:15:50.308Z,479.73
2022-08-18T16:18:23.048Z,472.60
2022-08-18T16:20:52.643Z,484.80
2022-08-18T16:23:22.071Z,484.70
2022-08-18T16:25:50.685Z,479.90
2022-08-18T16:28:20.301Z,489.57
2022-08-18T16:31:03.091Z,491.97
2022-08-18T16:33:31.538Z,480.80
2022-08-18T16:36:05.291Z,491.43
2022-08-18T16:38:34.315Z,479.27
2022-08-18T16:41:06.953Z,485.30
2022-08-18T16:43:36.953Z,494.43
2022-08-18T16:46:06.085Z,486.80
2022-08-18T16:48:35.198Z,493.80
2022-08-18T16:51:03.503Z,499.33
2022-08-18T16:53:39.917Z,496.93
2022-08-18T16:56:12.583Z,482.23
2022-08-18T16:58:59.608Z,499.00
2022-08-18T17:01:48.859Z,498.33
2022-08-18T17:04:22.519Z,509.50
2022-08-18T17:06:50.831Z,499.47
2022-08-18T17:09:19.850Z,494.60
2022-08-18T17:11:52.069Z,493.93
2022-08-18T17:14:24.094Z,501.87
2022-08-18T17:16:54.474Z,497.87
2022-08-18T17:19:23.376Z,493.00
2022-08-18T17:21:51.677Z,498.07
2022-08-18T17:24:31.845Z,500.33
2022-08-18T17:27:22.839Z,503.77
2022-08-18T17:30:05.318Z,498.57
2022-08-18T17:32:39.853Z,504.57
2022-08-18T17:35:13.801Z,498.77
2022-08-18T17:37:52.233Z,499.20
2022-08-18T17:40:24.681Z,506.80
2022-08-18T17:42:58.617Z,498.80
2022-08-18T17:45:29.762Z,511.67
2022-08-18T17:48:00.614Z,514.03
2022-08-18T17:50:49.714Z,523.20
2022-08-18T17:53:18.401Z,517.80
2022-08-18T17:55:50.138Z,512.40
2022-08-18T17:58:22.493Z,519.67
2022-08-18T18:00:52.563Z,517.47
2022-08-18T18:03:20.919Z,518.53
2022-08-18T18:05:52.852Z,534.97
2022-08-18T18:08:21.489Z,530.80
2022-08-18T18:11:07.634Z,533.77
2022-08-18T18:13:36.022Z,524.00
2022-08-18T18:16:24.392Z,533.57
2022-08-18T18:19:00.004Z,531.17
2022-08-18T18:22:00.531Z,537.63
2022-08-18T18:24:31.217Z,536.70
2022-08-18T18:26:59.442Z,529.50
2022-08-18T18:29:35.654Z,537.73
2022-08-18T18:32:23.601Z,532.67
2022-08-18T18:35:05.312Z,543.27
2022-08-18T18:37:33.791Z,535.67
2022-08-18T18:40:05.248Z,538.23
2022-08-18T18:42:36.026Z,545.93
2022-08-18T18:45:09.365Z,557.20
2022-08-18T18:47:51.249Z,549.10
2022-08-18T18:50:25.864Z,555.27
2022-08-18T18:53:05.857Z,557.57
2022-08-18T18:55:36.839Z,548.93
2022-08-18T18:58:14.073Z,546.57
2022-08-18T19:00:53.545Z,561.03
2022-08-18T19:03:28.293Z,562.53
2022-08-18T19:06:06.716Z,569.07
2022-08-18T19:08:39.670Z,573.63
2022-08-18T19:11:15.496Z,576.00
2022-08-18T19:13:54.393Z,571.93
2022-08-18T19:16:28.002Z,579.67
2022-08-18T19:19:36.923Z,576.40
2022-08-18T19:22:03.755Z,575.27
2022-08-18T19:24:39.896Z,580.13
2022-08-18T19:27:15.002Z,581.60
2022-08-18T19:29:44.789Z,584.50
2022-08-18T19:32:17.113Z,591.60
2022-08-18T19:34:52.883Z,587.30
2022-08-18T19:37:31.311Z,585.77
2022-08-18T19:40:07.254Z,591.97
2022-08-18T19:42:41.350Z,596.03
2022-08-18T19:45:17.633Z,601.10
2022-08-18T19:47:52.088Z,607.47
2022-08-18T19:50:33.667Z,613.10
2022-08-18T19:53:19.749Z,614.57
2022-08-18T19:56:05.089Z,612.33
2022-08-18T19:58:58.897Z,612.10
2022-08-18T20:01:44.365Z,616.77
2022-08-18T20:04:24.979Z,621.63
2022-08-18T20:07:06.712Z,619.63
2022-08-18T20:10:02.376Z,627.83
2022-08-18T20:12:56.067Z,623.77
2022-08-18T20:15:26.910Z,626.00
2022-08-18T20:18:09.580Z,623.97
2022-08-18T20:20:39.314Z,625.93
2022-08-18T20:23:34.059Z,630.33
2022-08-18T20:26:02.727Z,641.07
2022-08-18T20:28:37.528Z,634.50
2022-08-18T20:31:13.468Z,628.03
2022-08-18T20:34:06.347Z,628.53
2022-08-18T20:36:36.953Z,633.67
2022-08-18T20:39:34.764Z,634.53
2022-08-18T20:42:04.136Z,631.93
2022-08-18T20:44:58.950Z,634.90
2022-08-18T20:47:47.627Z,631.77
2022-08-18T20:50:42.189Z,634.10
2022-08-18T20:53:17.367Z,629.30
2022-08-18T20:56:12.905Z,635.10
2022-08-18T20:59:08.609Z,631.53
2022-08-18T21:01:39.009Z,633.57
2022-08-18T21:04:07.691Z,632.13
2022-08-18T21:06:38.595Z,634.63
2022-08-18T21:09:06.812Z,636.67
2022-08-18T21:11:42.930Z,631.90
2022-08-18T21:14:12.819Z,636.33
2022-08-18T21:16:45.014Z,632.93
2022-08-18T21:19:19.780Z,637.47
2022-08-18T21:21:51.684Z,637.60
2022-08-18T21:24:23.384Z,636.43
2022-08-18T21:26:56.699Z,637.67
2022-08-18T21:29:25.012Z,638.90
2022-08-18T21:31:54.347Z,639.97
2022-08-18T21:34:33.353Z,631.10
2022-08-18T21:37:04.251Z,633.30
2022-08-18T21:39:32.398Z,639.37
2022-08-18T21:42:02.460Z,632.93
2022-08-18T21:44:41.733Z,636.27
2022-08-18T21:47:16.853Z,638.87
2022-08-18T21:49:59.618Z,636.10
2022-08-18T21:52:30.336Z,638.60
2022-08-18T21:55:02.410Z,634.20
2022-08-18T21:57:50.110Z,634.43
2022-08-18T22:00:24.428Z,628.27
2022-08-18T22:02:53.452Z,635.63
2022-08-18T22:05:30.190Z,630.43
2022-08-18T22:08:21.238Z,631.33
2022-08-18T22:11:59.433Z,636.70
2022-08-18T22:14:36.225Z,620.40
2022-08-18T22:17:34.991Z,627.10
2022-08-18T22:20:37.820Z,625.23
2022-08-18T22:23:29.128Z,625.23
2022-08-18T22:26:07.008Z,625.60
2022-08-18T22:28:36.832Z,638.00
2022-08-18T22:31:06.957Z,629.27
2022-08-18T22:33:35.166Z,628.87
2022-08-18T22:36:04.467Z,634.53
2022-08-18T22:38:32.547Z,629.93
2022-08-18T22:41:01.097Z,635.10
2022-08-18T22:43:29.186Z,636.87
2022-08-18T22:45:57.201Z,633.87
2022-08-18T22:48:26.721Z,630.10
2022-08-18T22:50:54.835Z,631.43
2022-08-18T22:53:23.012Z,632.40
2022-08-18T22:55:53.268Z,635.00
2022-08-18T22:58:27.985Z,636.97
2022-08-18T23:01:05.495Z,631.20
2022-08-18T23:03:40.741Z,633.57
2022-08-18T23:06:10.828Z,634.87
2022-08-18T23:08:54.689Z,635.57
2022-08-18T23:11:24.566Z,622.87
2022-08-18T23:13:53.977Z,637.60
2022-08-18T23:16:31.319Z,629.60
2022-08-18T23:19:03.051Z,635.70
2022-08-18T23:21:34.206Z,639.37
2022-08-18T23:24:04.921Z,631.00
2022-08-18T23:26:34.187Z,633.17
2022-08-18T23:29:02.494Z,626.63
2022-08-18T23:31:31.473Z,635.07
2022-08-18T23:34:01.307Z,628.13
2022-08-18T23:36:29.733Z,632.37
2022-08-18T23:38:58.677Z,627.23
2022-08-18T23:41:26.743Z,628.43
2022-08-18T23:43:54.927Z,628.93
2022-08-18T23:46:25.031Z,632.37
2022-08-18T23:48:54.325Z,631.70
2022-08-18T23:51:32.742Z,630.93
2022-08-18T23:54:02.709Z,630.07
2022-08-18T23:56:31.832Z,640.97
2022-08-18T23:59:00.579Z,636.60
